Time;durP1;ratioP1;P1;durP2;ratioP2;P2;SDS_P1;SDS_P2;PMS_P1;PMS_P2;Temp;Humidity;BMP_temperature;BMP_pressure;BME280_temperature;BME280_humidity;BME280_pressure;Samples;Min_cycle;Max_cycle;Signal;HPM_P1;HPM_P2
2021/04/03 00:00:42;;;;;;;1999.90;999.90;;;16.70;86.60;;;;;;5092620;28;20294;-43
2021/04/03 00:03:11;;;;;;;1999.90;999.90;;;16.60;87.30;;;;;;5092600;28;20164;-43
2021/04/03 00:05:39;;;;;;;1999.90;999.90;;;16.50;87.00;;;;;;5092614;28;20589;-42
2021/04/03 00:08:06;;;;;;;1999.90;999.90;;;16.60;87.20;;;;;;5092675;28;20156;-43
2021/04/03 00:10:35;;;;;;;1999.90;999.90;;;16.40;87.40;;;;;;5092517;28;20707;-43
2021/04/03 00:13:02;;;;;;;1999.90;999.90;;;16.40;88.70;;;;;;5092462;28;20156;-43
2021/04/03 00:15:29;;;;;;;1999.90;999.90;;;16.40;88.80;;;;;;5092527;28;20180;-42
2021/04/03 00:17:56;;;;;;;1999.90;999.90;;;16.40;88.40;;;;;;5092473;28;20255;-42
2021/04/03 00:20:30;;;;;;;1999.90;999.90;;;16.40;88.50;;;;;;5092238;28;20753;-43
2021/04/03 00:22:57;;;;;;;1999.90;999.90;;;16.30;88.50;;;;;;5092377;28;20156;-42
2021/04/03 00:25:24;;;;;;;1999.90;999.90;;;16.30;88.70;;;;;;5092245;28;20176;-43
2021/04/03 00:27:51;;;;;;;1999.90;999.90;;;16.30;88.80;;;;;;5093855;28;20204;-43
2021/04/03 00:30:19;;;;;;;1999.90;999.90;;;16.30;88.20;;;;;;5095878;28;20565;-43
2021/04/03 00:33:06;;;;;;;1999.90;999.90;;;16.30;88.00;;;;;;5096119;28;20168;-43
2021/04/03 00:35:35;;;;;;;1999.90;999.90;;;16.30;87.80;;;;;;5095862;28;20240;-43
2021/04/03 00:38:03;;;;;;;1999.90;999.90;;;16.20;88.30;;;;;;5095985;28;20176;-43
2021/04/03 00:40:39;;;;;;;1999.90;999.90;;;16.20;88.10;;;;;;5095806;28;20324;-43
2021/04/03 00:43:15;;;;;;;1999.90;999.90;;;16.30;87.40;;;;;;5095921;28;20159;-43
2021/04/03 00:45:43;;;;;;;1999.90;999.90;;;16.20;87.80;;;;;;5095897;28;20608;-43
2021/04/03 00:48:10;;;;;;;1999.90;999.90;;;16.10;88.40;;;;;;5095895;28;20175;-43
2021/04/03 00:50:43;;;;;;;1999.90;999.90;;;16.20;88.70;;;;;;5095667;28;20691;-43
2021/04/03 00:53:14;;;;;;;1999.90;999.90;;;16.10;88.40;;;;;;5095841;28;20163;-43
2021/04/03 00:55:42;;;;;;;1999.90;999.90;;;16.10;88.90;;;;;;5095825;28;20156;-43
2021/04/03 00:58:09;;;;;;;1999.90;999.90;;;16.10;88.90;;;;;;5095663;28;20174;-43
2021/04/03 01:00:38;;;;;;;1999.90;999.90;;;16.00;89.20;;;;;;5095431;28;20205;-43
2021/04/03 01:03:04;;;;;;;1999.90;999.90;;;16.00;89.60;;;;;;5095606;28;20266;-43
2021/04/03 01:05:32;;;;;;;1999.90;999.90;;;16.10;89.80;;;;;;5095442;28;20182;-43
2021/04/03 01:07:59;;;;;;;1999.90;999.90;;;16.00;89.60;;;;;;5095161;28;20172;-43
2021/04/03 01:10:32;;;;;;;1999.90;999.90;;;16.00;89.60;;;;;;5095326;28;20171;-43
2021/04/03 01:13:08;;;;;;;1999.90;999.90;;;16.00;90.00;;;;;;5095285;28;20196;-44
2021/04/03 01:15:44;;;;;;;1999.90;999.90;;;16.00;89.70;;;;;;5095239;28;20251;-34
2021/04/03 01:18:36;;;;;;;1999.90;999.90;;;16.00;90.00;;;;;;5095283;28;20258;-34
2021/04/03 01:21:25;;;;;;;1999.90;999.90;;;16.10;89.80;;;;;;5095037;28;20235;-33
2021/04/03 01:23:52;;;;;;;1999.90;999.90;;;16.00;89.80;;;;;;5094978;28;20168;-32
2021/04/03 01:26:55;;;;;;;1999.90;999.90;;;15.90;89.80;;;;;;5094983;28;20534;-42
2021/04/03 01:29:37;;;;;;;1999.90;999.90;;;15.90;89.60;;;;;;5094935;28;20178;-42
2021/04/03 01:32:07;;;;;;;1999.90;999.90;;;15.90;89.90;;;;;;5094770;28;20579;-42
2021/04/03 01:34:40;;;;;;;1999.90;999.90;;;15.90;89.90;;;;;;5094808;28;20164;-42
2021/04/03 01:37:13;;;;;;;1999.90;999.90;;;15.90;89.90;;;;;;5094833;28;20630;-43
2021/04/03 01:39:44;;;;;;;1999.90;999.90;;;15.90;90.00;;;;;;5094687;28;20148;-44
2021/04/03 01:42:17;;;;;;;1999.90;999.90;;;16.00;89.80;;;;;;5094754;28;20171;-42
2021/04/03 01:44:58;;;;;;;1999.90;999.90;;;16.00;89.10;;;;;;5094619;28;20496;-43
2021/04/03 01:47:29;;;;;;;1999.90;999.90;;;16.00;89.20;;;;;;5094623;28;20180;-32
2021/04/03 01:49:59;;;;;;;1999.90;999.90;;;15.90;90.10;;;;;;5094472;28;20186;-42
2021/04/03 01:52:31;;;;;;;1999.90;999.90;;;15.80;90.10;;;;;;5094336;28;20199;-43
2021/04/03 01:55:10;;;;;;;1999.90;999.90;;;15.80;90.20;;;;;;5094492;28;20518;-43
2021/04/03 01:57:39;;;;;;;1999.90;999.90;;;15.70;90.30;;;;;;5094238;28;20243;-43
2021/04/03 02:00:12;;;;;;;1999.90;999.90;;;15.70;90.50;;;;;;5094099;28;20222;-43
2021/04/03 02:02:40;;;;;;;1999.90;999.90;;;15.60;90.50;;;;;;5094330;28;20164;-43
2021/04/03 02:05:12;;;;;;;1999.90;999.90;;;15.70;90.50;;;;;;5094235;28;20206;-43
2021/04/03 02:07:41;;;;;;;1999.90;999.90;;;15.70;90.60;;;;;;5094266;28;20164;-43
2021/04/03 02:10:16;;;;;;;1999.90;999.90;;;15.70;90.50;;;;;;5094132;28;20174;-42
2021/04/03 02:12:46;;;;;;;1999.90;999.90;;;15.80;90.50;;;;;;5094132;28;20171;-43
2021/04/03 02:15:14;;;;;;;1999.90;999.90;;;15.60;90.50;;;;;;5094057;28;20258;-42
2021/04/03 02:17:45;;;;;;;1999.90;999.90;;;15.70;90.70;;;;;;5094073;28;20176;-43
2021/04/03 02:20:12;;;;;;;1999.90;999.90;;;15.60;90.60;;;;;;5093872;28;20192;-43
2021/04/03 02:22:42;;;;;;;1999.90;999.90;;;15.60;90.80;;;;;;5093804;28;20606;-43
2021/04/03 02:25:14;;;;;;;1999.90;999.90;;;15.60;90.80;;;;;;5093861;28;20170;-42
2021/04/03 02:27:42;;;;;;;1999.90;999.90;;;15.60;90.90;;;;;;5093854;28;20672;-33
2021/04/03 02:30:15;;;;;;;1999.90;999.90;;;15.70;90.90;;;;;;5093573;28;20280;-42
2021/04/03 02:32:56;;;;;;;1999.90;999.90;;;15.60;90.80;;;;;;5093664;28;20195;-43
2021/04/03 02:35:25;;;;;;;1999.90;999.90;;;15.60;91.10;;;;;;5093692;28;20160;-42
2021/04/03 02:37:58;;;;;;;1999.90;999.90;;;15.60;91.00;;;;;;5093691;28;20251;-32
2021/04/03 02:40:29;;;;;;;1999.90;999.90;;;15.60;91.00;;;;;;5093559;28;20210;-32
2021/04/03 02:43:21;;;;;;;1999.90;999.90;;;15.50;91.10;;;;;;5093632;28;20248;-33
2021/04/03 02:46:11;;;;;;;1999.90;999.90;;;15.40;91.20;;;;;;5093778;28;20167;-43
2021/04/03 02:48:40;;;;;;;1999.90;999.90;;;15.40;91.70;;;;;;5093516;28;20160;-42
2021/04/03 02:51:09;;;;;;;1999.90;999.90;;;15.30;91.50;;;;;;5093119;28;20630;-43
2021/04/03 02:53:38;;;;;;;1999.90;999.90;;;15.30;91.70;;;;;;5093403;28;20199;-42
2021/04/03 02:56:06;;;;;;;1999.90;999.90;;;15.30;91.70;;;;;;5093221;28;20509;-43
2021/04/03 02:58:38;;;;;;;1999.90;999.90;;;15.20;91.80;;;;;;5075074;28;20183;-43
2021/04/03 03:01:10;;;;;;;1999.90;999.90;;;15.20;91.80;;;;;;5093238;28;20195;-43
2021/04/03 03:03:38;;;;;;;1999.90;999.90;;;15.20;91.90;;;;;;5093162;28;20239;-43
2021/04/03 03:06:05;;;;;;;1999.90;999.90;;;15.20;92.00;;;;;;5093175;28;20629;-42
2021/04/03 03:08:34;;;;;;;1999.90;999.90;;;15.20;92.00;;;;;;5093213;28;20247;-43
2021/04/03 03:11:03;;;;;;;1999.90;999.90;;;15.20;91.90;;;;;;5093156;28;20164;-42
2021/04/03 03:13:34;;;;;;;1999.90;999.90;;;15.20;92.10;;;;;;5093265;28;20176;-42
2021/04/03 03:16:03;;;;;;;1999.90;999.90;;;15.20;92.20;;;;;;5093100;28;20163;-43
2021/04/03 03:18:31;;;;;;;1999.90;999.90;;;15.10;91.50;;;;;;5093030;28;20531;-43
2021/04/03 03:20:58;;;;;;;1999.90;999.90;;;14.90;91.80;;;;;;5092915;28;20192;-42
2021/04/03 03:23:26;;;;;;;1999.90;999.90;;;14.80;91.80;;;;;;5093039;28;20532;-34
2021/04/03 03:25:57;;;;;;;1999.90;999.90;;;14.70;92.10;;;;;;5093155;28;20521;-33
2021/04/03 03:28:25;;;;;;;1999.90;999.90;;;14.60;92.30;;;;;;5092948;28;20214;-33
2021/04/03 03:30:53;;;;;;;1999.90;999.90;;;14.60;92.60;;;;;;5092869;28;20219;-42
2021/04/03 03:33:20;;;;;;;1999.90;999.90;;;14.60;92.60;;;;;;5092905;28;20232;-43
2021/04/03 03:35:47;;;;;;;1999.90;999.90;;;14.60;92.40;;;;;;5092947;28;20168;-34
2021/04/03 03:38:15;;;;;;;1999.90;999.90;;;14.70;92.50;;;;;;5092868;28;20163;-44
2021/04/03 03:40:43;;;;;;;1999.90;999.90;;;14.70;92.40;;;;;;5092815;28;20206;-43
2021/04/03 03:43:16;;;;;;;1999.90;999.90;;;14.70;92.50;;;;;;5092876;28;20171;-33
2021/04/03 03:45:44;;;;;;;1999.90;999.90;;;14.70;92.50;;;;;;5092825;28;20160;-33
2021/04/03 03:48:11;;;;;;;1999.90;999.90;;;14.60;92.60;;;;;;5092783;28;20626;-33
2021/04/03 03:50:38;;;;;;;1999.90;999.90;;;14.60;92.70;;;;;;5092719;28;20188;-42
2021/04/03 03:53:05;;;;;;;1999.90;999.90;;;14.60;92.80;;;;;;5092721;28;20258;-42
2021/04/03 03:55:32;;;;;;;1999.90;999.90;;;14.70;92.80;;;;;;5092723;28;20214;-33
2021/04/03 03:57:58;;;;;;;1999.90;999.90;;;14.60;92.70;;;;;;5092734;28;20202;-42
2021/04/03 04:00:25;;;;;;;1999.90;999.90;;;14.70;92.80;;;;;;5092732;28;20199;-44
2021/04/03 04:02:52;;;;;;;1999.90;999.90;;;14.70;92.40;;;;;;5094168;28;20614;-44
2021/04/03 04:05:19;;;;;;;1999.90;999.90;;;14.70;92.60;;;;;;5096629;28;20190;-44
2021/04/03 04:07:45;;;;;;;1999.90;999.90;;;14.60;92.60;;;;;;5096522;28;20172;-44
2021/04/03 04:10:13;;;;;;;1999.90;999.90;;;14.70;92.70;;;;;;5096504;28;20564;-44
2021/04/03 04:12:40;;;;;;;1999.90;999.90;;;14.60;92.60;;;;;;5096487;28;20656;-45
2021/04/03 04:15:08;;;;;;;1999.90;999.90;;;14.60;92.50;;;;;;5096272;28;20187;-45
2021/04/03 04:17:35;;;;;;;1999.90;999.90;;;14.70;92.40;;;;;;5096337;28;20163;-44
2021/04/03 04:20:04;;;;;;;1999.90;999.90;;;14.70;92.40;;;;;;5096085;28;20798;-44
2021/04/03 04:22:31;;;;;;;1999.90;999.90;;;14.70;92.50;;;;;;5096275;28;20624;-44
2021/04/03 04:24:57;;;;;;;1999.90;999.90;;;14.60;92.70;;;;;;5096330;28;20167;-44
2021/04/03 04:27:24;;;;;;;1999.90;999.90;;;14.60;92.80;;;;;;5096150;28;20256;-44
2021/04/03 04:29:51;;;;;;;1999.90;999.90;;;14.60;92.90;;;;;;5095935;28;20236;-45
2021/04/03 04:32:18;;;;;;;1999.90;999.90;;;14.60;93.10;;;;;;5096075;28;20175;-44
2021/04/03 04:34:44;;;;;;;1999.90;999.90;;;14.60;93.20;;;;;;5096099;28;20168;-45
2021/04/03 04:37:11;;;;;;;1999.90;999.90;;;14.60;93.10;;;;;;5095996;28;20203;-44
2021/04/03 04:39:38;;;;;;;1999.90;999.90;;;14.60;93.30;;;;;;5095908;28;20164;-46
2021/04/03 04:42:05;;;;;;;1999.90;999.90;;;14.60;93.30;;;;;;5095927;28;20183;-44
2021/04/03 04:44:32;;;;;;;1999.90;999.90;;;14.70;93.10;;;;;;5095803;28;20160;-44
2021/04/03 04:46:59;;;;;;;1999.90;999.90;;;14.60;93.10;;;;;;5095924;28;20199;-44
2021/04/03 04:49:26;;;;;;;1999.90;999.90;;;14.60;93.50;;;;;;5095821;28;20168;-44
2021/04/03 04:51:53;;;;;;;1999.90;999.90;;;14.50;94.00;;;;;;5095614;28;20504;-44
2021/04/03 04:54:20;;;;;;;1999.90;999.90;;;14.50;93.90;;;;;;5095603;28;20167;-44
2021/04/03 04:56:46;;;;;;;1999.90;999.90;;;14.50;93.80;;;;;;5095372;28;20202;-44
2021/04/03 04:59:13;;;;;;;1999.90;999.90;;;14.50;93.80;;;;;;5095556;28;20171;-44
2021/04/03 05:01:40;;;;;;;1999.90;999.90;;;14.50;93.60;;;;;;5095420;28;20224;-44
2021/04/03 05:04:07;;;;;;;1999.90;999.90;;;14.60;93.50;;;;;;5095367;28;20164;-46
2021/04/03 05:06:35;;;;;;;1999.90;999.90;;;14.70;93.70;;;;;;5095395;28;20581;-44
2021/04/03 05:09:03;;;;;;;1999.90;999.90;;;14.70;93.30;;;;;;5095247;28;20172;-33
2021/04/03 05:11:30;;;;;;;1999.90;999.90;;;14.70;93.50;;;;;;5095423;28;20168;-43
2021/04/03 05:13:56;;;;;;;1999.90;999.90;;;14.60;93.60;;;;;;5094858;28;20261;-43
2021/04/03 05:16:23;;;;;;;1999.90;999.90;;;14.60;93.70;;;;;;5095145;28;20277;-43
2021/04/03 05:18:50;;;;;;;1999.90;999.90;;;14.50;94.00;;;;;;5095150;28;20172;-43
2021/04/03 05:21:17;;;;;;;1999.90;999.90;;;14.50;93.90;;;;;;5094910;28;20673;-43
2021/04/03 05:23:43;;;;;;;1999.90;999.90;;;14.60;94.00;;;;;;5095055;28;20259;-43
2021/04/03 05:26:10;;;;;;;1999.90;999.90;;;14.70;94.00;;;;;;5094965;28;20623;-44
2021/04/03 05:28:37;;;;;;;1999.90;999.90;;;14.70;93.80;;;;;;5094968;28;20243;-44
2021/04/03 05:31:04;;;;;;;1999.90;999.90;;;14.70;93.90;;;;;;5094807;28;20216;-43
2021/04/03 05:33:30;;;;;;;1999.90;999.90;;;14.80;93.90;;;;;;5094912;28;20209;-44
2021/04/03 05:35:57;;;;;;;1999.90;999.90;;;14.70;93.60;;;;;;5094779;28;20176;-43
2021/04/03 05:38:24;;;;;;;1999.90;999.90;;;14.70;93.50;;;;;;5094673;28;20599;-43
2021/04/03 05:40:52;;;;;;;1999.90;999.90;;;14.80;93.50;;;;;;5094634;28;20206;-43
2021/04/03 05:43:20;;;;;;;1999.90;999.90;;;14.80;93.40;;;;;;5094493;28;20176;-43
2021/04/03 05:45:53;;;;;;;1999.90;999.90;;;14.80;93.30;;;;;;5094547;28;20168;-43
2021/04/03 05:48:24;;;;;;;1999.90;999.90;;;14.90;93.40;;;;;;5094591;28;20180;-35
2021/04/03 05:50:55;;;;;;;1999.90;999.90;;;14.90;93.20;;;;;;5094462;28;20168;-42
2021/04/03 05:53:23;;;;;;;1999.90;999.90;;;15.00;93.00;;;;;;5094435;28;20164;-43
2021/04/03 05:55:57;;;;;;;1999.90;999.90;;;15.10;92.70;;;;;;5094408;28;20180;-44
2021/04/03 05:58:24;;;;;;;1999.90;999.90;;;15.20;92.50;;;;;;5094392;28;20159;-44
2021/04/03 06:00:55;;;;;;;1999.90;999.90;;;15.40;92.20;;;;;;5094130;28;20202;-44
2021/04/03 06:03:22;;;;;;;1999.90;999.90;;;15.40;92.20;;;;;;5094008;28;20202;-43
2021/04/03 06:05:50;;;;;;;1999.90;999.90;;;15.50;92.00;;;;;;5094023;28;20221;-44
2021/04/03 06:08:18;;;;;;;1999.90;999.90;;;15.50;91.80;;;;;;5094193;28;20251;-33
2021/04/03 06:11:09;;;;;;;1999.90;999.90;;;15.60;91.60;;;;;;5094147;28;20163;-44
2021/04/03 06:13:36;;;;;;;1999.90;999.90;;;15.70;91.60;;;;;;5094251;28;20164;-43
2021/04/03 06:16:22;;;;;;;1999.90;999.90;;;15.80;91.50;;;;;;5094020;28;20226;-43
2021/04/03 06:18:49;;;;;;;1999.90;999.90;;;16.00;91.20;;;;;;5093926;28;20172;-43
2021/04/03 06:21:16;;;;;;;1999.90;999.90;;;16.20;90.80;;;;;;5093795;28;20603;-33
2021/04/03 06:23:43;;;;;;;1999.90;999.90;;;16.30;90.40;;;;;;5093873;28;20160;-44
2021/04/03 06:26:09;;;;;;;1999.90;999.90;;;16.40;90.20;;;;;;5093085;28;20194;-43
2021/04/03 06:28:36;;;;;;;1999.90;999.90;;;16.40;89.90;;;;;;5093848;28;20156;-42
2021/04/03 06:31:17;;;;;;;1999.90;999.90;;;16.50;90.00;;;;;;5093304;28;20227;-43
2021/04/03 06:33:44;;;;;;;1999.90;999.90;;;16.60;90.10;;;;;;5093655;28;20168;-43
2021/04/03 06:36:12;;;;;;;1999.90;999.90;;;16.70;89.00;;;;;;5093695;28;20164;-40
2021/04/03 06:38:41;;;;;;;1999.90;999.90;;;16.80;88.50;;;;;;5093756;28;20198;-40
2021/04/03 06:41:20;;;;;;;1999.90;999.90;;;16.90;88.80;;;;;;5093600;28;20765;-40
2021/04/03 06:44:09;;;;;;;1999.90;999.90;;;17.10;87.10;;;;;;5093368;28;20182;-40
2021/04/03 06:46:38;;;;;;;1999.90;999.90;;;17.20;86.60;;;;;;5093468;28;20626;-41
2021/04/03 06:49:06;;;;;;;1999.90;999.90;;;17.30;85.70;;;;;;5093248;28;20262;-41
2021/04/03 06:51:33;;;;;;;1999.90;999.90;;;17.40;85.40;;;;;;5093114;28;20159;-44
2021/04/03 06:54:02;;;;;;;1999.90;999.90;;;17.60;85.00;;;;;;5093334;28;20170;-44
2021/04/03 06:56:31;;;;;;;1999.90;999.90;;;17.60;84.60;;;;;;5093225;28;20159;-43
2021/04/03 06:59:12;;;;;;;1999.90;999.90;;;17.80;83.30;;;;;;5092954;28;20168;-43
2021/04/03 07:01:56;;;;;;;1999.90;999.90;;;18.00;82.80;;;;;;5093085;28;20199;-43
2021/04/03 07:04:35;;;;;;;1999.90;999.90;;;18.10;82.10;;;;;;5093024;28;20175;-44
2021/04/03 07:07:04;;;;;;;1999.90;999.90;;;18.30;81.60;;;;;;5093104;28;20492;-44
2021/04/03 07:09:31;;;;;;;1999.90;999.90;;;18.40;80.80;;;;;;5093129;28;20166;-43
2021/04/03 07:11:58;;;;;;;1999.90;999.90;;;18.60;80.60;;;;;;5092963;28;20164;-42
2021/04/03 07:14:25;;;;;;;1999.90;999.90;;;18.80;81.00;;;;;;5093025;28;20168;-42
2021/04/03 07:16:52;;;;;;;1999.90;999.90;;;18.90;79.30;;;;;;5092903;28;20163;-42
2021/04/03 07:19:21;;;;;;;1999.90;999.90;;;19.00;77.60;;;;;;5092867;28;20232;-42
2021/04/03 07:21:49;;;;;;;1999.90;999.90;;;19.20;77.90;;;;;;5092920;28;20253;-32
2021/04/03 07:24:18;;;;;;;1999.90;999.90;;;19.40;76.90;;;;;;5092839;28;20170;-43
2021/04/03 07:26:50;;;;;;;1999.90;999.90;;;19.60;76.50;;;;;;5092829;28;20269;-42
2021/04/03 07:29:39;;;;;;;1999.90;999.90;;;19.70;75.40;;;;;;5092893;28;20674;-43
2021/04/03 07:32:06;;;;;;;1999.90;999.90;;;20.00;74.50;;;;;;5092703;28;20701;-44
2021/04/03 07:34:43;;;;;;;1999.90;999.90;;;20.30;73.60;;;;;;5092774;28;20171;-42
2021/04/03 07:37:11;;;;;;;1999.90;999.90;;;20.50;72.50;;;;;;5094722;28;20172;-43
2021/04/03 07:39:41;;;;;;;1999.90;999.90;;;20.80;70.70;;;;;;5096917;28;20194;-33
2021/04/03 07:42:28;;;;;;;1999.90;999.90;;;21.00;69.50;;;;;;5096821;28;20300;-32
2021/04/03 07:44:55;;;;;;;1999.90;999.90;;;21.10;69.60;;;;;;5096849;28;20251;-41
2021/04/03 07:47:23;;;;;;;1999.90;999.90;;;21.30;67.60;;;;;;5096808;28;20164;-43
2021/04/03 07:49:49;;;;;;;1999.90;999.90;;;21.60;65.60;;;;;;5096778;28;20228;-33
2021/04/03 07:52:16;;;;;;;1999.90;999.90;;;21.90;63.20;;;;;;5096877;28;20187;-33
2021/04/03 07:54:43;;;;;;;1999.90;999.90;;;22.30;62.10;;;;;;5096830;28;20255;-44
2021/04/03 07:57:10;;;;;;;1999.90;999.90;;;22.90;59.30;;;;;;5096659;28;20164;-33
2021/04/03 07:59:48;;;;;;;1999.90;999.90;;;23.50;58.20;;;;;;5096562;28;20212;-33
2021/04/03 08:02:26;;;;;;;1999.90;999.90;;;24.10;57.20;;;;;;5096543;28;20198;-34
2021/04/03 08:04:54;;;;;;;1999.90;999.90;;;24.40;56.30;;;;;;5096345;28;20175;-34
2021/04/03 08:07:22;;;;;;;1999.90;999.90;;;24.90;53.00;;;;;;5096406;28;20164;-33
2021/04/03 08:09:50;;;;;;;1999.90;999.90;;;24.90;52.40;;;;;;5096201;28;20680;-43
2021/04/03 08:12:21;;;;;;;1999.90;999.90;;;24.90;52.60;;;;;;5096469;28;20168;-42
2021/04/03 08:14:51;;;;;;;1999.90;999.90;;;25.10;52.70;;;;;;5096468;28;20175;-44
2021/04/03 08:17:20;;;;;;;1999.90;999.90;;;25.60;51.30;;;;;;5096381;28;20160;-43
2021/04/03 08:19:47;;;;;;;1999.90;999.90;;;26.00;49.80;;;;;;5096378;28;20201;-42
2021/04/03 08:22:14;;;;;;;1999.90;999.90;;;26.30;49.70;;;;;;5096235;28;20172;-41
2021/04/03 08:25:03;;;;;;;1999.90;999.90;;;26.40;48.60;;;;;;5096141;28;20167;-41
2021/04/03 08:27:35;;;;;;;1999.90;999.90;;;26.70;47.90;;;;;;5095947;28;20170;-33
2021/04/03 08:30:20;;;;;;;1999.90;999.90;;;27.10;47.30;;;;;;5095790;28;20653;-41
2021/04/03 08:33:03;;;;;;;1999.90;999.90;;;27.70;46.60;;;;;;5095996;28;20183;-41
2021/04/03 08:35:31;;;;;;;1999.90;999.90;;;27.70;45.60;;;;;;5095891;28;20152;-41
2021/04/03 08:38:15;;;;;;;1999.90;999.90;;;28.10;45.10;;;;;;5095702;28;20251;-35
2021/04/03 08:40:43;;;;;;;1999.90;999.90;;;27.90;43.50;;;;;;5095816;28;20646;-43
2021/04/03 08:43:17;;;;;;;1999.90;999.90;;;27.90;43.50;;;;;;5095755;28;20535;-32
2021/04/03 08:45:44;;;;;;;1999.90;999.90;;;28.30;43.00;;;;;;5095816;28;20180;-32
2021/04/03 08:48:11;;;;;;;1999.90;999.90;;;28.30;42.50;;;;;;5095001;28;20594;-41
2021/04/03 08:50:43;;;;;;;1999.90;999.90;;;28.30;41.60;;;;;;5095643;28;20217;-41
2021/04/03 08:53:10;;;;;;;1999.90;999.90;;;28.20;41.60;;;;;;5095706;28;20198;-43
2021/04/03 08:55:37;;;;;;;1999.90;999.90;;;28.40;41.20;;;;;;5095535;28;20250;-43
2021/04/03 08:58:06;;;;;;;1999.90;999.90;;;28.60;40.80;;;;;;5095423;28;20170;-32
2021/04/03 09:00:34;;;;;;;1999.90;999.90;;;29.00;39.40;;;;;;5095092;28;20245;-41
2021/04/03 09:03:02;;;;;;;1999.90;999.90;;;29.10;36.80;;;;;;5095111;28;20182;-35
2021/04/03 09:05:29;;;;;;;1999.90;999.90;;;29.40;38.30;;;;;;5095117;28;20516;-35
2021/04/03 09:07:56;;;;;;;1999.90;999.90;;;29.40;38.10;;;;;;5094971;28;20196;-38
2021/04/03 09:10:25;;;;;;;1999.90;999.90;;;29.40;37.30;;;;;;5095034;28;20254;-42
2021/04/03 09:12:54;;;;;;;1999.90;999.90;;;29.40;35.40;;;;;;5095213;28;20194;-33
2021/04/03 09:15:30;;;;;;;1999.90;999.90;;;29.80;34.60;;;;;;5095230;28;20164;-32
2021/04/03 09:17:59;;;;;;;1999.90;999.90;;;30.00;35.00;;;;;;5094904;28;20208;-35
2021/04/03 09:20:28;;;;;;;1999.90;999.90;;;29.50;35.70;;;;;;5094766;28;20221;-34
2021/04/03 09:23:08;;;;;;;1999.90;999.90;;;29.40;35.20;;;;;;5094678;28;20176;-39
2021/04/03 09:25:35;;;;;;;1999.90;999.90;;;29.60;35.00;;;;;;5095097;28;20171;-44
2021/04/03 09:28:06;;;;;;;1999.90;999.90;;;29.70;33.90;;;;;;5094694;28;20168;-32
2021/04/03 09:30:39;;;;;;;1999.90;999.90;;;29.80;32.70;;;;;;5094524;28;20215;-41
2021/04/03 09:33:26;;;;;;;1999.90;999.90;;;29.80;33.50;;;;;;5094688;28;20156;-33
2021/04/03 09:36:09;;;;;;;1999.90;999.90;;;30.00;32.70;;;;;;5095016;28;20204;-32
2021/04/03 09:38:39;;;;;;;1999.90;999.90;;;30.20;32.60;;;;;;5094676;28;20247;-33
2021/04/03 09:41:26;;;;;;;1999.90;999.90;;;30.30;33.40;;;;;;5094474;28;20561;-34
2021/04/03 09:43:54;;;;;;;1999.90;999.90;;;30.30;32.70;;;;;;5094514;28;20183;-33
2021/04/03 09:46:22;;;;;;;1999.90;999.90;;;30.10;33.00;;;;;;5094576;28;20175;-37
2021/04/03 09:48:50;;;;;;;1999.90;999.90;;;30.00;32.60;;;;;;5094358;28;20178;-39
2021/04/03 09:51:17;;;;;;;1999.90;999.90;;;30.00;32.50;;;;;;5094212;28;20180;-34
2021/04/03 09:53:46;;;;;;;1999.90;999.90;;;30.10;32.50;;;;;;5094203;28;20171;-33
2021/04/03 09:56:13;;;;;;;1999.90;999.90;;;30.10;31.90;;;;;;5094160;28;20363;-38
2021/04/03 09:58:40;;;;;;;1999.90;999.90;;;30.00;32.00;;;;;;5094052;28;20626;-38
2021/04/03 10:01:07;;;;;;;1999.90;999.90;;;30.50;31.70;;;;;;5093007;28;20282;-37
2021/04/03 10:03:34;;;;;;;1999.90;999.90;;;30.90;31.70;;;;;;5094062;28;20171;-39
2021/04/03 10:06:01;;;;;;;1999.90;999.90;;;30.60;31.70;;;;;;5094076;28;20241;-37
2021/04/03 10:08:29;;;;;;;1999.90;999.90;;;30.80;31.30;;;;;;5093806;28;20172;-42
2021/04/03 10:10:56;;;;;;;1999.90;999.90;;;30.70;31.00;;;;;;5093975;28;20160;-37
2021/04/03 10:13:23;;;;;;;1999.90;999.90;;;30.60;31.20;;;;;;5094028;28;20168;-45
2021/04/03 10:15:50;;;;;;;1999.90;999.90;;;30.30;31.40;;;;;;5093858;28;20164;-47
2021/04/03 10:18:17;;;;;;;1999.90;999.90;;;30.10;31.70;;;;;;5093796;28;20168;-36
2021/04/03 10:20:44;;;;;;;1999.90;999.90;;;30.00;30.80;;;;;;5093582;28;20673;-37
2021/04/03 10:23:12;;;;;;;1999.90;999.90;;;30.00;31.90;;;;;;5093580;28;20199;-47
2021/04/03 10:25:39;;;;;;;1999.90;999.90;;;30.50;31.00;;;;;;5093716;28;20200;-32
2021/04/03 10:28:06;;;;;;;1999.90;999.90;;;30.20;31.60;;;;;;5093552;28;20178;-40
2021/04/03 10:30:33;;;;;;;1999.90;999.90;;;30.40;31.00;;;;;;5093378;28;20618;-42
2021/04/03 10:33:00;;;;;;;1999.90;999.90;;;30.70;29.60;;;;;;5093562;28;20224;-38
2021/04/03 10:35:27;;;;;;;1999.90;999.90;;;30.70;28.30;;;;;;5093556;28;20178;-37
2021/04/03 10:37:54;;;;;;;1999.90;999.90;;;30.50;29.10;;;;;;5093461;28;20595;-35
2021/04/03 10:40:21;;;;;;;1999.90;999.90;;;30.70;29.80;;;;;;5093320;28;20194;-34
2021/04/03 10:42:48;;;;;;;1999.90;999.90;;;30.50;29.10;;;;;;5093321;28;20195;-41
2021/04/03 10:45:15;;;;;;;1999.90;999.90;;;30.80;28.80;;;;;;5093346;28;20167;-38
2021/04/03 10:47:42;;;;;;;1999.90;999.90;;;30.70;29.10;;;;;;5093236;28;20172;-33
2021/04/03 10:50:09;;;;;;;1999.90;999.90;;;30.60;28.90;;;;;;5093193;28;20220;-36
2021/04/03 10:52:36;;;;;;;1999.90;999.90;;;30.50;28.50;;;;;;5093123;28;20176;-38
2021/04/03 10:55:04;;;;;;;1999.90;999.90;;;30.50;29.30;;;;;;5093138;28;20199;-38
2021/04/03 10:57:31;;;;;;;1999.90;999.90;;;30.50;29.10;;;;;;5093162;28;20172;-32
2021/04/03 10:59:58;;;;;;;1999.90;999.90;;;30.50;28.80;;;;;;5093115;28;20257;-44
2021/04/03 11:02:24;;;;;;;1999.90;999.90;;;30.60;28.40;;;;;;5093091;28;20178;-37
2021/04/03 11:04:51;;;;;;;1999.90;999.90;;;30.50;27.90;;;;;;5092944;28;20172;-32
2021/04/03 11:07:18;;;;;;;1999.90;999.90;;;30.60;28.20;;;;;;5093023;28;20289;-34
2021/04/03 11:09:45;;;;;;;1999.90;999.90;;;30.30;26.60;;;;;;5092855;28;20159;-39
2021/04/03 11:12:13;;;;;;;1999.90;999.90;;;30.60;28.50;;;;;;5092478;28;20175;-35
2021/04/03 11:14:42;;;;;;;1999.90;999.90;;;31.00;27.90;;;;;;5092624;28;20172;-35
2021/04/03 11:17:10;;;;;;;1999.90;999.90;;;31.30;27.60;;;;;;5092878;28;20229;-43
2021/04/03 11:19:37;;;;;;;1999.90;999.90;;;31.30;27.60;;;;;;5092824;28;20259;-36
2021/04/03 11:22:05;;;;;;;1999.90;999.90;;;31.30;27.80;;;;;;5092527;28;20226;-38
2021/04/03 11:24:33;;;;;;;1999.90;999.90;;;31.50;27.40;;;;;;5092755;28;20218;-32
2021/04/03 11:27:01;;;;;;;1999.90;999.90;;;31.60;27.10;;;;;;5092629;28;20622;-33
2021/04/03 11:29:28;;;;;;;1999.90;999.90;;;31.40;26.20;;;;;;5092775;28;20176;-35
2021/04/03 11:31:54;;;;;;;1999.90;999.90;;;31.40;26.80;;;;;;5092721;28;20247;-44
2021/04/03 11:34:24;;;;;;;1999.90;999.90;;;31.40;26.40;;;;;;5092741;28;20294;-34
2021/04/03 11:36:52;;;;;;;1999.90;999.90;;;31.40;25.30;;;;;;5092910;28;20160;-37
2021/04/03 11:39:19;;;;;;;1999.90;999.90;;;31.20;25.00;;;;;;5092820;28;20174;-38
2021/04/03 11:41:46;;;;;;;1999.90;999.90;;;30.60;25.80;;;;;;5092725;28;20199;-46
2021/04/03 11:44:12;;;;;;;1999.90;999.90;;;30.00;26.10;;;;;;5092817;28;20193;-33
2021/04/03 11:46:39;;;;;;;1999.90;999.90;;;30.40;27.20;;;;;;5092741;28;20648;-34
2021/04/03 11:49:06;;;;;;;1999.90;999.90;;;30.70;27.20;;;;;;5092885;28;20610;-41
2021/04/03 11:51:33;;;;;;;1999.90;999.90;;;30.90;27.20;;;;;;5092844;28;20168;-32
2021/04/03 11:54:00;;;;;;;1999.90;999.90;;;31.00;26.90;;;;;;5092567;28;20321;-33
2021/04/03 11:56:27;;;;;;;1999.90;999.90;;;30.80;27.20;;;;;;5092666;28;20217;-46
2021/04/03 11:58:54;;;;;;;1999.90;999.90;;;30.40;27.80;;;;;;5092677;28;20626;-33
2021/04/03 12:01:21;;;;;;;1999.90;999.90;;;30.10;28.10;;;;;;5092542;28;20673;-32
2021/04/03 12:03:48;;;;;;;1999.90;999.90;;;30.50;28.90;;;;;;5092482;28;20538;-50
2021/04/03 12:06:14;;;;;;;1999.90;999.90;;;30.90;28.40;;;;;;5092445;28;20168;-33
2021/04/03 12:08:41;;;;;;;1999.90;999.90;;;30.90;28.40;;;;;;5092355;28;20164;-33
2021/04/03 12:11:08;;;;;;;1999.90;999.90;;;30.40;28.50;;;;;;5092463;28;20168;-32